createdAt,value
2023-02-27T00:01:41.167Z,61.31
2023-02-27T00:06:43.883Z,67.39
2023-02-27T00:11:46.768Z,69.27
2023-02-27T00:16:49.501Z,64.71
2023-02-27T00:21:52.779Z,63.97
2023-02-27T00:26:55.483Z,64.42
2023-02-27T00:31:58.793Z,64.05
2023-02-27T00:37:01.596Z,63.14
2023-02-27T00:42:04.549Z,59.73
2023-02-27T00:47:07.451Z,57.06
2023-02-27T00:52:11.224Z,60.02
2023-02-27T00:57:14.054Z,65.29
2023-02-27T01:02:17.390Z,70.21
2023-02-27T01:07:20.155Z,64.38
2023-02-27T01:12:23.044Z,60.54
2023-02-27T01:17:25.853Z,59.55
2023-02-27T01:22:28.658Z,54.80
2023-02-27T01:27:32.281Z,56.53
2023-02-27T01:32:35.124Z,58.16
2023-02-27T01:37:38.168Z,59.67
2023-02-27T01:42:41.061Z,61.94
2023-02-27T01:47:52.502Z,69.88
2023-02-27T01:52:58.989Z,71.70
2023-02-27T01:58:01.698Z,66.70
2023-02-27T02:03:25.926Z,63.77
2023-02-27T02:08:32.072Z,60.78
2023-02-27T02:13:35.430Z,55.77
2023-02-27T02:18:46.280Z,54.30
2023-02-27T02:24:08.013Z,55.22
2023-02-27T02:29:38.815Z,58.99
2023-02-27T02:35:00.173Z,66.77
2023-02-27T02:40:16.821Z,67.92
2023-02-27T02:45:38.376Z,60.11
2023-02-27T02:51:04.626Z,52.78
2023-02-27T02:56:23.294Z,52.96
2023-02-27T03:01:35.476Z,54.10
2023-02-27T03:06:43.417Z,55.90
2023-02-27T03:11:50.676Z,58.90
2023-02-27T03:16:58.163Z,66.69
2023-02-27T03:22:09.567Z,69.64
2023-02-27T03:27:13.191Z,64.36
2023-02-27T03:32:25.226Z,59.55
2023-02-27T03:37:52.376Z,52.33
2023-02-27T03:43:06.203Z,53.37
2023-02-27T03:48:09.240Z,53.86
2023-02-27T03:53:23.819Z,55.73
2023-02-27T03:58:26.822Z,57.06
2023-02-27T04:03:33.095Z,59.75
2023-02-27T04:09:04.983Z,70.18
2023-02-27T04:14:29.400Z,65.49
2023-02-27T04:19:44.083Z,54.92
2023-02-27T04:25:06.269Z,53.42
2023-02-27T04:30:42.902Z,54.93
2023-02-27T04:35:53.956Z,58.38
2023-02-27T04:41:09.850Z,57.57
2023-02-27T04:46:16.551Z,59.19
2023-02-27T04:51:25.203Z,70.40
2023-02-27T04:56:34.428Z,70.45
2023-02-27T05:01:42.127Z,60.03
2023-02-27T05:06:48.177Z,54.23
2023-02-27T05:11:59.702Z,57.35
2023-02-27T05:17:09.080Z,58.98
2023-02-27T05:22:25.191Z,59.45
2023-02-27T05:27:37.687Z,60.97
2023-02-27T05:32:49.237Z,69.94
2023-02-27T05:38:05.411Z,65.78
2023-02-27T05:43:22.990Z,53.48
2023-02-27T05:49:11.676Z,53.12
2023-02-27T05:54:24.941Z,55.22
2023-02-27T05:59:53.766Z,56.22
2023-02-27T06:04:56.624Z,56.45
2023-02-27T06:09:59.397Z,57.06
2023-02-27T06:15:02.178Z,59.64
2023-02-27T06:20:06.972Z,67.26
2023-02-27T06:25:10.214Z,67.38
2023-02-27T06:30:14.057Z,56.10
2023-02-27T06:35:17.116Z,50.24
2023-02-27T06:40:19.923Z,50.64
2023-02-27T06:45:24.410Z,56.86
2023-02-27T06:50:27.682Z,66.20
2023-02-27T06:55:30.478Z,59.00
2023-02-27T07:00:33.569Z,50.75
2023-02-27T07:05:36.546Z,59.99
2023-02-27T07:10:40.168Z,65.10
2023-02-27T07:15:44.741Z,63.48
2023-02-27T07:20:50.220Z,49.92
2023-02-27T07:25:52.931Z,55.39
2023-02-27T07:30:56.398Z,59.59
2023-02-27T07:35:59.819Z,65.74
2023-02-27T07:41:02.773Z,55.66
2023-02-27T07:46:05.788Z,57.24
2023-02-27T07:51:08.886Z,61.17
2023-02-27T07:56:11.869Z,64.43
2023-02-27T08:01:15.098Z,52.70
2023-02-27T08:06:18.105Z,55.04
2023-02-27T08:11:20.878Z,60.27
2023-02-27T08:16:23.660Z,60.75
2023-02-27T08:21:29.095Z,60.85
2023-02-27T08:26:32.325Z,63.27
2023-02-27T08:31:35.220Z,55.72
2023-02-27T08:36:39.272Z,55.39
2023-02-27T08:41:42.037Z,58.35
2023-02-27T08:46:45.228Z,60.38
2023-02-27T08:51:47.910Z,60.08
2023-02-27T08:56:50.706Z,53.92
2023-02-27T09:01:53.670Z,48.74
2023-02-27T09:06:58.088Z,45.65
2023-02-27T09:12:00.757Z,42.38
2023-02-27T09:17:03.662Z,37.49
2023-02-27T09:22:06.477Z,36.14
2023-02-27T09:27:09.279Z,34.38
2023-02-27T09:32:12.696Z,31.55
2023-02-27T09:37:16.565Z,31.05
2023-02-27T09:42:24.619Z,28.48
2023-02-27T09:47:37.385Z,28.56
2023-02-27T09:52:40.189Z,25.39
2023-02-27T09:57:52.101Z,24.45
2023-02-27T10:02:58.839Z,22.92
2023-02-27T10:08:40.208Z,23.73
2023-02-27T10:13:50.686Z,22.03
2023-02-27T10:19:06.297Z,21.15
2023-02-27T10:24:34.344Z,20.74
2023-02-27T10:29:41.721Z,21.16
2023-02-27T10:34:54.031Z,22.39
2023-02-27T10:40:01.251Z,23.28
2023-02-27T10:45:05.942Z,24.02
2023-02-27T10:50:27.209Z,25.02
2023-02-27T10:55:33.079Z,27.69
2023-02-27T11:00:45.304Z,27.16
2023-02-27T11:06:00.721Z,25.31
2023-02-27T11:11:07.179Z,24.81
2023-02-27T11:16:15.410Z,24.41
2023-02-27T11:21:20.521Z,24.71
2023-02-27T11:26:36.353Z,22.36
2023-02-27T11:31:39.985Z,21.56
2023-02-27T11:36:46.625Z,19.60
2023-02-27T11:41:50.199Z,19.28
2023-02-27T11:47:08.588Z,18.44
2023-02-27T11:52:20.994Z,17.50
2023-02-27T11:57:38.651Z,17.73
2023-02-27T12:02:53.467Z,17.16
2023-02-27T12:08:06.680Z,17.21
2023-02-27T12:13:21.335Z,16.80
2023-02-27T12:18:28.568Z,16.90
2023-02-27T12:23:41.718Z,17.70
2023-02-27T12:28:44.520Z,18.73
2023-02-27T12:34:01.770Z,19.85
2023-02-27T12:39:05.510Z,19.03
2023-02-27T12:44:33.267Z,18.05
2023-02-27T12:49:56.529Z,17.38
2023-02-27T12:55:06.216Z,19.17
2023-02-27T13:00:15.170Z,19.79
2023-02-27T13:05:33.028Z,19.34
2023-02-27T13:11:13.019Z,18.29
2023-02-27T13:16:25.972Z,17.05
2023-02-27T13:21:51.472Z,16.51
2023-02-27T13:27:24.230Z,16.51
2023-02-27T13:32:46.778Z,16.03
2023-02-27T13:38:32.530Z,16.19
2023-02-27T13:43:51.128Z,16.54
2023-02-27T13:49:28.080Z,15.85
2023-02-27T13:54:33.990Z,16.10
2023-02-27T13:59:41.902Z,15.99
2023-02-27T14:04:50.949Z,16.58
2023-02-27T14:10:04.394Z,16.68
2023-02-27T14:15:30.545Z,16.99
2023-02-27T14:20:33.233Z,17.55
2023-02-27T14:25:40.145Z,17.40
2023-02-27T14:30:51.486Z,16.88
2023-02-27T14:36:04.321Z,16.78
2023-02-27T14:41:12.653Z,16.77
2023-02-27T14:46:35.237Z,16.98
2023-02-27T14:51:38.637Z,18.18
2023-02-27T14:56:52.895Z,19.01
2023-02-27T15:01:58.429Z,19.17
2023-02-27T15:07:01.562Z,19.10
2023-02-27T15:12:05.107Z,19.93
2023-02-27T15:17:23.125Z,22.11
2023-02-27T15:22:38.882Z,23.95
2023-02-27T15:27:42.610Z,24.52
2023-02-27T15:32:45.335Z,24.77
2023-02-27T15:37:55.030Z,23.99
2023-02-27T15:42:59.558Z,23.84
2023-02-27T15:48:04.105Z,24.84
2023-02-27T15:53:25.525Z,26.43
2023-02-27T15:58:37.614Z,27.16
2023-02-27T16:03:45.048Z,28.18
2023-02-27T16:09:01.665Z,29.46
2023-02-27T16:14:06.162Z,29.85
2023-02-27T16:19:27.414Z,30.78
2023-02-27T16:24:32.032Z,32.62
2023-02-27T16:29:37.267Z,33.32
2023-02-27T16:34:45.488Z,36.69
2023-02-27T16:39:52.285Z,35.63
2023-02-27T16:44:55.126Z,35.70
2023-02-27T16:49:58.350Z,38.10
2023-02-27T16:55:01.524Z,40.18
2023-02-27T17:00:08.955Z,40.44
2023-02-27T17:05:11.774Z,41.06
2023-02-27T17:10:17.108Z,40.00
2023-02-27T17:15:21.031Z,39.44
2023-02-27T17:20:26.180Z,39.87
2023-02-27T17:25:29.189Z,38.97
2023-02-27T17:30:31.962Z,40.19
2023-02-27T17:35:34.884Z,39.79
2023-02-27T17:40:39.391Z,40.84
2023-02-27T17:45:42.316Z,43.30
2023-02-27T17:50:45.338Z,44.03
2023-02-27T17:55:48.353Z,43.40
2023-02-27T18:00:51.162Z,43.00
2023-02-27T18:05:53.895Z,44.62
2023-02-27T18:10:56.655Z,46.39
2023-02-27T18:15:59.448Z,44.78
2023-02-27T18:21:05.307Z,47.23
2023-02-27T18:26:17.196Z,48.22
2023-02-27T18:31:30.397Z,48.04
2023-02-27T18:36:34.368Z,47.35
2023-02-27T18:41:37.923Z,48.28
2023-02-27T18:46:42.507Z,48.75
2023-02-27T18:51:45.484Z,47.57
2023-02-27T18:56:51.099Z,48.50
2023-02-27T19:01:55.210Z,48.54
2023-02-27T19:06:57.925Z,49.09
2023-02-27T19:12:01.004Z,48.45
2023-02-27T19:17:04.315Z,48.97
2023-02-27T19:22:07.112Z,48.72
2023-02-27T19:27:10.822Z,48.74
2023-02-27T19:32:14.827Z,50.00
2023-02-27T19:37:17.825Z,50.34
2023-02-27T19:42:20.575Z,49.92
2023-02-27T19:47:24.004Z,49.53
2023-02-27T19:52:26.905Z,49.94
2023-02-27T19:57:29.636Z,49.10
2023-02-27T20:02:32.721Z,49.82
2023-02-27T20:07:35.605Z,50.14
2023-02-27T20:12:38.317Z,50.25
2023-02-27T20:17:42.185Z,52.44
2023-02-27T20:22:44.968Z,50.26
2023-02-27T20:27:48.237Z,50.05
2023-02-27T20:32:51.087Z,50.45
2023-02-27T20:37:54.154Z,50.60
2023-02-27T20:42:57.674Z,50.96
2023-02-27T20:48:00.351Z,50.66
2023-02-27T20:53:03.141Z,51.78
2023-02-27T20:58:05.947Z,52.03
2023-02-27T21:03:08.712Z,51.77
2023-02-27T21:08:11.556Z,51.46
2023-02-27T21:13:14.684Z,51.36
2023-02-27T21:18:17.377Z,51.47
2023-02-27T21:23:20.068Z,52.05
2023-02-27T21:28:23.192Z,52.06
2023-02-27T21:33:26.554Z,52.68
2023-02-27T21:38:30.135Z,52.67
2023-02-27T21:43:34.079Z,52.83
2023-02-27T21:48:37.789Z,53.31
2023-02-27T21:53:40.578Z,53.63
2023-02-27T21:58:43.268Z,56.15
2023-02-27T22:03:47.615Z,55.22
2023-02-27T22:08:58.614Z,54.57
2023-02-27T22:14:01.820Z,54.92
2023-02-27T22:19:09.840Z,54.73
2023-02-27T22:24:12.566Z,54.87
2023-02-27T22:29:15.533Z,65.22
2023-02-27T22:34:19.215Z,76.58
2023-02-27T22:39:22.289Z,68.67
2023-02-27T22:44:25.083Z,64.83
2023-02-27T22:49:27.792Z,60.87
2023-02-27T22:54:30.784Z,58.44
2023-02-27T22:59:33.587Z,56.30
2023-02-27T23:04:36.390Z,54.96
2023-02-27T23:09:39.185Z,53.95
2023-02-27T23:14:42.136Z,52.73
2023-02-27T23:19:46.031Z,51.82
2023-02-27T23:24:48.820Z,49.41
2023-02-27T23:29:51.622Z,50.00
2023-02-27T23:34:54.303Z,53.72
2023-02-27T23:39:57.019Z,57.02
2023-02-27T23:44:59.767Z,58.56
2023-02-27T23:50:02.617Z,59.82
2023-02-27T23:55:06.778Z,57.98
